createdAt,value
2022-12-11T00:03:15.824Z,4.88
2022-12-11T00:06:09.149Z,4.80
2022-12-11T00:08:54.415Z,5.15
2022-12-11T00:14:23.625Z,5.18
2022-12-11T00:17:08.230Z,5.15
2022-12-11T00:19:53.137Z,4.75
2022-12-11T00:22:37.837Z,5.68
2022-12-11T00:25:22.909Z,5.38
2022-12-11T00:28:08.139Z,5.53
2022-12-11T00:30:52.699Z,5.30
2022-12-11T00:33:37.765Z,6.05
2022-12-11T00:36:25.807Z,6.05
2022-12-11T00:39:10.519Z,5.38
2022-12-11T00:41:55.777Z,5.95
2022-12-11T00:47:25.842Z,5.63
2022-12-11T00:52:56.285Z,6.55
2022-12-11T00:55:42.058Z,6.35
2022-12-11T00:58:27.050Z,6.88
2022-12-11T01:01:16.014Z,6.60
2022-12-11T01:04:00.578Z,7.10
2022-12-11T01:09:48.647Z,6.78
2022-12-11T01:12:33.406Z,6.70
2022-12-11T01:18:04.487Z,7.32
2022-12-11T01:20:49.291Z,7.45
2022-12-11T01:23:34.567Z,7.45
2022-12-11T01:29:04.360Z,6.82
2022-12-11T01:31:49.066Z,7.68
2022-12-11T01:34:34.219Z,7.57
2022-12-11T01:37:20.605Z,7.68
2022-12-11T01:40:07.041Z,8.40
2022-12-11T01:42:51.689Z,7.35
2022-12-11T01:45:44.037Z,7.93
2022-12-11T01:48:31.977Z,7.53
2022-12-11T01:51:17.115Z,7.55
2022-12-11T01:56:52.522Z,7.35
2022-12-11T01:59:40.481Z,8.60
2022-12-11T02:02:30.995Z,8.13
2022-12-11T02:05:16.075Z,8.48
2022-12-11T02:08:03.029Z,9.15
2022-12-11T02:11:11.652Z,8.20
2022-12-11T02:14:04.900Z,8.10
2022-12-11T02:16:53.253Z,7.88
2022-12-11T02:20:06.102Z,8.43
2022-12-11T02:23:12.627Z,8.60
2022-12-11T02:26:17.666Z,8.40
2022-12-11T02:29:08.086Z,9.00
2022-12-11T02:32:25.558Z,8.98
2022-12-11T02:35:25.394Z,8.15
2022-12-11T02:38:18.696Z,8.70
2022-12-11T02:41:06.797Z,8.25
2022-12-11T02:43:55.416Z,8.88
2022-12-11T02:46:41.283Z,9.63
2022-12-11T02:49:27.860Z,9.30
2022-12-11T02:52:16.897Z,9.70
2022-12-11T02:55:03.699Z,8.63
2022-12-11T02:58:03.202Z,9.50
2022-12-11T03:00:50.948Z,8.98
2022-12-11T03:03:36.301Z,9.02
2022-12-11T03:09:08.612Z,8.40
2022-12-11T03:11:53.161Z,8.15
2022-12-11T03:17:32.023Z,7.88
2022-12-11T03:20:22.689Z,8.65
2022-12-11T03:23:30.459Z,8.82
2022-12-11T03:26:18.181Z,8.80
2022-12-11T03:29:11.318Z,9.18
2022-12-11T03:32:08.495Z,8.40
2022-12-11T03:34:58.051Z,8.65
2022-12-11T03:37:45.628Z,8.52
2022-12-11T03:40:33.469Z,9.10
2022-12-11T03:43:20.757Z,9.82
2022-12-11T03:46:08.891Z,9.88
2022-12-11T03:48:58.597Z,10.32
2022-12-11T03:51:46.043Z,9.93
2022-12-11T03:54:32.639Z,11.13
2022-12-11T03:57:21.937Z,9.48
2022-12-11T04:00:10.487Z,9.27
2022-12-11T04:03:14.578Z,8.15
2022-12-11T04:05:59.669Z,9.02
2022-12-11T04:08:44.887Z,8.95
2022-12-11T04:11:35.870Z,8.75
2022-12-11T04:14:39.146Z,8.90
2022-12-11T04:17:42.705Z,8.55
2022-12-11T04:20:56.806Z,8.88
2022-12-11T04:24:00.163Z,9.05
2022-12-11T04:26:46.797Z,8.38
2022-12-11T04:29:31.777Z,8.98
2022-12-11T04:32:16.402Z,8.43
2022-12-11T04:37:46.094Z,7.93
2022-12-11T04:40:30.997Z,9.13
2022-12-11T04:43:15.751Z,9.00
2022-12-11T04:46:10.544Z,8.60
2022-12-11T04:48:57.730Z,9.70
2022-12-11T04:51:43.104Z,8.75
2022-12-11T04:54:31.585Z,7.82
2022-12-11T04:57:16.378Z,8.75
2022-12-11T05:00:04.206Z,8.50
2022-12-11T05:02:49.134Z,7.90
2022-12-11T05:05:34.331Z,8.57
2022-12-11T05:08:20.293Z,7.75
2022-12-11T05:11:07.611Z,7.35
2022-12-11T05:13:52.351Z,7.97
2022-12-11T05:16:37.431Z,7.50
2022-12-11T05:19:22.369Z,7.57
2022-12-11T05:22:07.638Z,8.70
2022-12-11T05:24:52.514Z,7.95
2022-12-11T05:27:37.101Z,8.77
2022-12-11T05:30:21.620Z,8.45
2022-12-11T05:33:06.661Z,7.30
2022-12-11T05:35:51.316Z,8.93
2022-12-11T05:38:36.272Z,7.45
2022-12-11T05:44:07.378Z,8.10
2022-12-11T05:46:52.468Z,7.78
2022-12-11T05:49:37.482Z,8.00
2022-12-11T05:52:22.830Z,9.88
2022-12-11T05:55:08.979Z,8.85
2022-12-11T05:57:54.195Z,8.57
2022-12-11T06:00:41.855Z,8.40
2022-12-11T06:03:26.911Z,8.45
2022-12-11T06:06:12.471Z,8.35
2022-12-11T06:08:58.771Z,8.20
2022-12-11T06:11:43.432Z,8.40
2022-12-11T06:14:28.458Z,8.80
2022-12-11T06:17:13.405Z,8.30
2022-12-11T06:19:58.325Z,9.27
2022-12-11T06:22:42.908Z,9.52
2022-12-11T06:25:29.009Z,9.32
2022-12-11T06:28:14.024Z,8.93
2022-12-11T06:30:59.980Z,8.93
2022-12-11T06:33:45.709Z,9.32
2022-12-11T06:36:30.568Z,9.50
2022-12-11T06:41:59.891Z,8.55
2022-12-11T06:47:29.933Z,8.80
2022-12-11T06:50:15.029Z,8.77
2022-12-11T06:52:59.890Z,8.82
2022-12-11T06:55:44.448Z,9.38
2022-12-11T06:58:29.522Z,9.00
2022-12-11T07:01:17.760Z,9.05
2022-12-11T07:04:02.517Z,10.23
2022-12-11T07:06:48.563Z,10.98
2022-12-11T07:09:33.681Z,10.73
2022-12-11T07:12:18.549Z,10.32
2022-12-11T07:15:05.042Z,10.00
2022-12-11T07:17:50.040Z,10.38
2022-12-11T07:20:35.189Z,9.88
2022-12-11T07:23:20.741Z,10.48
2022-12-11T07:26:08.386Z,11.70
2022-12-11T07:28:57.101Z,11.80
2022-12-11T07:31:41.648Z,11.52
2022-12-11T07:34:26.645Z,12.75
2022-12-11T07:39:55.959Z,10.60
2022-12-11T07:42:45.787Z,11.25
2022-12-11T07:45:31.162Z,11.73
2022-12-11T07:48:16.036Z,11.30
2022-12-11T07:51:15.100Z,11.95
2022-12-11T07:54:07.250Z,11.70
2022-12-11T07:56:53.997Z,12.40
2022-12-11T07:59:39.121Z,12.68
2022-12-11T08:02:24.080Z,12.25
2022-12-11T08:05:09.324Z,11.88
2022-12-11T08:07:55.074Z,12.05
2022-12-11T08:10:39.943Z,12.00
2022-12-11T08:13:24.858Z,12.00
2022-12-11T08:16:12.638Z,13.70
2022-12-11T08:18:57.797Z,13.90
2022-12-11T08:24:27.404Z,11.35
2022-12-11T08:27:12.433Z,11.45
2022-12-11T08:29:57.600Z,11.68
2022-12-11T08:32:42.564Z,11.77
2022-12-11T08:35:27.775Z,10.80
2022-12-11T08:38:12.492Z,11.48
2022-12-11T08:40:57.106Z,11.77
2022-12-11T08:43:42.775Z,12.35
2022-12-11T08:46:31.746Z,11.93
2022-12-11T08:49:16.925Z,11.07
2022-12-11T08:52:05.194Z,12.52
2022-12-11T08:54:49.771Z,11.60
2022-12-11T08:57:34.283Z,11.10
2022-12-11T09:00:19.497Z,11.65
2022-12-11T09:03:08.492Z,10.90
2022-12-11T09:05:57.402Z,11.25
2022-12-11T09:08:48.719Z,11.13
2022-12-11T09:11:37.377Z,9.73
2022-12-11T09:14:22.478Z,10.57
2022-12-11T09:17:08.157Z,10.20
2022-12-11T09:19:53.007Z,10.60
2022-12-11T09:22:38.023Z,11.30
2022-12-11T09:25:22.576Z,12.45
2022-12-11T09:28:07.455Z,11.88
2022-12-11T09:30:52.447Z,10.00
2022-12-11T09:33:37.771Z,9.30
2022-12-11T09:36:23.546Z,9.98
2022-12-11T09:39:11.535Z,9.88
2022-12-11T09:42:38.641Z,9.90
2022-12-11T09:45:23.308Z,9.85
2022-12-11T09:48:10.597Z,9.20
2022-12-11T09:50:56.635Z,9.80
2022-12-11T09:53:41.275Z,8.77
2022-12-11T09:56:41.882Z,8.50
2022-12-11T09:59:35.424Z,8.65
2022-12-11T10:02:35.269Z,9.45
2022-12-11T10:05:30.560Z,9.85
2022-12-11T10:08:38.372Z,9.95
2022-12-11T10:11:44.978Z,9.98
2022-12-11T10:14:32.255Z,10.95
2022-12-11T10:17:20.757Z,10.07
2022-12-11T10:20:28.621Z,10.68
2022-12-11T10:23:19.616Z,10.63
2022-12-11T10:26:15.416Z,11.90
2022-12-11T10:29:00.521Z,11.23
2022-12-11T10:31:57.274Z,11.02
2022-12-11T10:34:46.964Z,10.02
2022-12-11T10:37:31.614Z,10.82
2022-12-11T10:40:19.508Z,9.30
2022-12-11T10:43:04.184Z,10.07
2022-12-11T10:45:53.913Z,10.63
2022-12-11T10:48:50.117Z,9.43
2022-12-11T10:51:37.056Z,10.48
2022-12-11T10:54:43.579Z,9.57
2022-12-11T10:57:34.165Z,11.32
2022-12-11T11:00:28.073Z,12.18
2022-12-11T11:03:27.535Z,11.57
2022-12-11T11:06:15.090Z,11.90
2022-12-11T11:09:01.237Z,13.05
2022-12-11T11:11:49.793Z,12.05
2022-12-11T11:14:34.898Z,12.38
2022-12-11T11:17:19.396Z,11.70
2022-12-11T11:20:14.363Z,12.68
2022-12-11T11:23:02.490Z,13.18
2022-12-11T11:25:57.302Z,15.68
2022-12-11T11:28:56.203Z,19.10
2022-12-11T11:31:41.772Z,20.58
2022-12-11T11:34:30.181Z,20.95
2022-12-11T11:37:24.591Z,18.55
2022-12-11T11:40:32.751Z,17.55
2022-12-11T11:43:36.500Z,15.43
2022-12-11T11:46:27.318Z,12.98
2022-12-11T11:49:11.795Z,10.30
2022-12-11T11:52:21.059Z,9.30
2022-12-11T11:55:18.672Z,8.15
2022-12-11T11:58:14.437Z,7.65
2022-12-11T12:00:59.061Z,8.05
2022-12-11T12:03:46.187Z,8.18
2022-12-11T12:06:31.165Z,7.80
2022-12-11T12:09:25.050Z,8.57
2022-12-11T12:12:28.680Z,8.57
2022-12-11T12:15:24.638Z,8.45
2022-12-11T12:18:22.110Z,9.57
2022-12-11T12:21:31.818Z,11.13
2022-12-11T12:24:43.404Z,10.48
2022-12-11T12:27:54.625Z,14.25
2022-12-11T12:30:48.005Z,13.35
2022-12-11T12:33:51.793Z,12.75
2022-12-11T12:39:33.736Z,12.63
2022-12-11T12:42:44.356Z,12.05
2022-12-11T12:45:37.331Z,11.07
2022-12-11T12:48:24.293Z,11.68
2022-12-11T12:51:13.474Z,14.32
2022-12-11T12:54:05.569Z,12.88
2022-12-11T12:56:57.146Z,12.43
2022-12-11T12:59:42.049Z,10.27
2022-12-11T13:02:27.069Z,8.73
2022-12-11T13:05:32.173Z,11.95
2022-12-11T13:08:24.320Z,12.15
2022-12-11T13:11:11.551Z,12.73
2022-12-11T13:14:06.920Z,12.43
2022-12-11T13:17:03.597Z,11.35
2022-12-11T13:19:50.103Z,11.02
2022-12-11T13:22:34.991Z,11.45
2022-12-11T13:25:30.413Z,13.07
2022-12-11T13:28:29.215Z,16.52
2022-12-11T13:31:14.038Z,16.23
2022-12-11T13:34:26.424Z,17.60
2022-12-11T13:37:29.164Z,16.65
2022-12-11T13:40:41.493Z,16.88
2022-12-11T13:43:30.057Z,17.42
2022-12-11T13:46:20.375Z,18.85
2022-12-11T13:49:07.518Z,18.75
2022-12-11T13:51:55.082Z,19.33
2022-12-11T13:54:47.976Z,20.63
2022-12-11T13:57:32.709Z,19.48
2022-12-11T14:00:23.669Z,19.92
2022-12-11T14:03:10.419Z,19.05
2022-12-11T14:05:55.158Z,24.02
2022-12-11T14:08:43.635Z,26.13
2022-12-11T14:11:33.808Z,28.52
2022-12-11T14:14:28.664Z,27.52
2022-12-11T14:17:14.986Z,27.25
2022-12-11T14:20:06.483Z,24.80
2022-12-11T14:22:51.400Z,23.42
2022-12-11T14:25:36.398Z,21.50
2022-12-11T14:28:22.734Z,22.88
2022-12-11T14:31:07.731Z,34.28
2022-12-11T14:34:02.452Z,44.45
2022-12-11T14:36:48.849Z,48.72
2022-12-11T14:39:40.306Z,52.83
2022-12-11T14:42:41.994Z,54.15
2022-12-11T14:45:44.172Z,58.75
2022-12-11T14:48:38.465Z,51.72
2022-12-11T14:51:24.588Z,50.45
2022-12-11T14:54:20.493Z,52.00
2022-12-11T14:57:07.686Z,43.53
2022-12-11T14:59:54.703Z,34.40
2022-12-11T15:02:39.870Z,30.23
2022-12-11T15:05:25.697Z,22.42
2022-12-11T15:08:10.377Z,17.40
2022-12-11T15:11:11.947Z,17.50
2022-12-11T15:13:58.690Z,15.45
2022-12-11T15:16:43.684Z,15.32
2022-12-11T15:19:28.173Z,15.57
2022-12-11T15:22:15.725Z,15.10
2022-12-11T15:25:01.135Z,13.13
2022-12-11T15:27:50.914Z,14.65
2022-12-11T15:30:35.633Z,14.55
2022-12-11T15:33:21.520Z,15.38
2022-12-11T15:36:21.019Z,14.60
2022-12-11T15:39:08.021Z,12.00
2022-12-11T15:41:52.941Z,8.75
2022-12-11T15:47:25.051Z,8.95
2022-12-11T15:50:27.605Z,8.48
2022-12-11T15:53:12.200Z,8.95
2022-12-11T15:55:58.126Z,7.57
2022-12-11T15:58:44.955Z,7.50
2022-12-11T16:01:29.969Z,8.13
2022-12-11T16:04:14.755Z,7.45
2022-12-11T16:06:59.228Z,7.18
2022-12-11T16:09:45.518Z,6.35
2022-12-11T16:12:30.471Z,6.13
2022-12-11T16:15:21.649Z,5.10
2022-12-11T16:18:11.801Z,5.50
2022-12-11T16:20:56.723Z,4.85
2022-12-11T16:23:41.397Z,5.25
2022-12-11T16:26:26.565Z,5.00
2022-12-11T16:29:11.447Z,4.63
2022-12-11T16:31:56.498Z,4.32
2022-12-11T16:34:41.519Z,4.05
2022-12-11T16:37:26.709Z,4.32
2022-12-11T16:40:11.840Z,4.80
2022-12-11T16:42:57.004Z,3.67
2022-12-11T16:45:42.632Z,4.47
2022-12-11T16:48:27.766Z,4.43
2022-12-11T16:51:14.261Z,4.30
2022-12-11T16:53:58.916Z,5.10
2022-12-11T16:56:44.552Z,4.95
2022-12-11T16:59:36.578Z,5.20
2022-12-11T17:02:22.479Z,5.25
2022-12-11T17:05:07.542Z,4.60
2022-12-11T17:07:52.251Z,3.80
2022-12-11T17:10:41.222Z,3.67
2022-12-11T17:13:25.637Z,3.65
2022-12-11T17:16:15.767Z,3.63
2022-12-11T17:19:02.394Z,3.42
2022-12-11T17:21:51.552Z,3.20
2022-12-11T17:24:36.441Z,3.20
2022-12-11T17:30:06.453Z,3.45
2022-12-11T17:32:51.415Z,4.18
2022-12-11T17:35:36.771Z,4.00
2022-12-11T17:38:21.463Z,4.80
2022-12-11T17:43:54.762Z,5.18
2022-12-11T17:46:39.510Z,4.93
2022-12-11T17:52:09.524Z,3.92
2022-12-11T17:54:53.969Z,4.05
2022-12-11T18:00:24.523Z,3.25
2022-12-11T18:03:11.000Z,3.35
2022-12-11T18:06:01.904Z,4.03
2022-12-11T18:08:46.521Z,3.80
2022-12-11T18:11:31.770Z,4.45
2022-12-11T18:14:17.615Z,3.13
2022-12-11T18:17:03.452Z,3.20
2022-12-11T18:19:48.008Z,2.60
2022-12-11T18:25:17.972Z,2.78
2022-12-11T18:28:03.087Z,2.65
2022-12-11T18:33:36.546Z,2.72
2022-12-11T18:36:21.920Z,2.90
2022-12-11T18:39:07.182Z,2.90
2022-12-11T18:44:56.457Z,3.05
2022-12-11T18:50:26.683Z,2.92
2022-12-11T18:53:11.450Z,3.20
2022-12-11T18:56:00.387Z,3.28
2022-12-11T18:58:46.558Z,3.28
2022-12-11T19:01:33.464Z,3.33
2022-12-11T19:04:18.003Z,4.07
2022-12-11T19:09:48.531Z,3.47
2022-12-11T19:12:33.841Z,4.15
2022-12-11T19:15:23.569Z,4.00
2022-12-11T19:18:09.269Z,4.78
2022-12-11T19:21:03.235Z,4.57
2022-12-11T19:26:36.456Z,5.43
2022-12-11T19:29:27.398Z,5.47
2022-12-11T19:32:12.049Z,6.68
2022-12-11T19:34:56.855Z,5.97
2022-12-11T19:37:42.542Z,5.63
2022-12-11T19:40:27.364Z,5.88
2022-12-11T19:45:59.208Z,5.32
2022-12-11T19:48:44.768Z,4.80
2022-12-11T19:51:37.843Z,4.95
2022-12-11T19:54:22.642Z,5.10
2022-12-11T19:57:08.278Z,5.60
2022-12-11T19:59:57.243Z,6.18
2022-12-11T20:02:42.302Z,5.38
2022-12-11T20:05:27.406Z,5.72
2022-12-11T20:08:43.081Z,6.00
2022-12-11T20:11:18.930Z,5.43
2022-12-11T20:14:03.881Z,4.55
2022-12-11T20:19:54.366Z,5.57
2022-12-11T20:22:38.785Z,5.03
2022-12-11T20:25:24.519Z,4.75
2022-12-11T20:28:09.384Z,6.47
2022-12-11T20:30:54.400Z,5.35
2022-12-11T20:36:24.980Z,5.13
2022-12-11T20:39:10.178Z,4.32
2022-12-11T20:41:54.860Z,5.00
2022-12-11T20:44:42.711Z,5.20
2022-12-11T20:47:30.419Z,4.88
2022-12-11T20:50:15.980Z,5.47
2022-12-11T20:53:00.856Z,5.45
2022-12-11T20:58:31.745Z,5.15
2022-12-11T21:01:18.768Z,4.80
2022-12-11T21:04:03.400Z,5.13
2022-12-11T21:06:54.726Z,5.82
2022-12-11T21:12:29.780Z,4.70
2022-12-11T21:15:16.022Z,5.75
2022-12-11T21:18:01.011Z,6.85
2022-12-11T21:20:46.137Z,5.93
2022-12-11T21:23:31.485Z,6.03
2022-12-11T21:29:01.803Z,7.18
2022-12-11T21:31:46.996Z,6.72
2022-12-11T21:37:16.415Z,6.07
2022-12-11T21:40:01.477Z,5.53
2022-12-11T21:42:46.339Z,5.95
2022-12-11T21:46:05.491Z,5.32
2022-12-11T21:48:42.069Z,6.43
2022-12-11T21:51:36.160Z,5.30
2022-12-11T21:54:22.457Z,5.45
2022-12-11T21:59:51.906Z,5.25
2022-12-11T22:02:40.856Z,5.63
2022-12-11T22:05:26.472Z,5.43
2022-12-11T22:08:10.992Z,5.60
2022-12-11T22:10:56.159Z,4.30
2022-12-11T22:13:40.912Z,6.05
2022-12-11T22:19:11.221Z,5.70
2022-12-11T22:21:55.809Z,5.60
2022-12-11T22:24:40.862Z,5.50
2022-12-11T22:30:13.756Z,5.07
2022-12-11T22:32:58.556Z,5.88
2022-12-11T22:38:27.635Z,5.40
2022-12-11T22:41:22.496Z,5.68
2022-12-11T22:44:14.814Z,5.72
2022-12-11T22:46:59.682Z,6.10
2022-12-11T22:49:44.893Z,6.07
2022-12-11T22:52:29.903Z,6.13
2022-12-11T22:55:15.078Z,6.95
2022-12-11T22:57:59.804Z,7.15
2022-12-11T23:00:44.452Z,7.40
2022-12-11T23:06:18.546Z,7.30
2022-12-11T23:09:03.924Z,7.88
2022-12-11T23:11:48.460Z,8.43
2022-12-11T23:14:33.541Z,7.40
2022-12-11T23:20:05.263Z,7.60
2022-12-11T23:22:50.420Z,6.82
2022-12-11T23:25:35.146Z,7.75
2022-12-11T23:28:20.069Z,6.85
2022-12-11T23:31:05.141Z,8.55
2022-12-11T23:36:35.133Z,6.32
2022-12-11T23:39:19.939Z,7.35
2022-12-11T23:42:05.418Z,8.93
2022-12-11T23:44:50.001Z,8.40
2022-12-11T23:47:35.087Z,8.38
2022-12-11T23:50:20.032Z,7.88
2022-12-11T23:55:49.892Z,8.55
2022-12-11T23:58:36.594Z,8.07
